This is the latest recevied weather packets stored in our database for station/object ZS2JO. If no packets are shown the sender has not sent any weather packets the latest 1 day(s).
| Time | Temp. | Humidity | Pressure | Rain* | Wind** | Luminosity | Snow |
|---|---|---|---|---|---|---|---|
| 1778030897 | 13.89° C | 99% | 1007.3 hPa | 0 mm | - | 0 W/m² | - |
| 1778030595 | 13.89° C | 99% | 1007.1 hPa | 0 mm | - | 0 W/m² | - |
| 1778030292 | 13.89° C | 99% | 1007.9 hPa | 0 mm | - | 0 W/m² | - |
| 1778029988 | 14.44° C | 99% | 1008 hPa | 0 mm | - | 0 W/m² | - |
| 1778029686 | 14.44° C | 99% | 1008.4 hPa | 0 mm | - | 0 W/m² | - |
| 1778029384 | 14.44° C | 99% | 1008.5 hPa | 0 mm | - | 0 W/m² | - |
| 1778028777 | 14.44° C | 99% | 1008.7 hPa | 0.51 mm | - | 0 W/m² | - |
| 1778028473 | 14.44° C | 99% | 1008.5 hPa | 0 mm | - | 0 W/m² | - |
| 1778028171 | 14.44° C | 99% | 1008.1 hPa | 0 mm | - | 0 W/m² | - |
| 1778027867 | 14.44° C | 99% | 1007.8 hPa | 0 mm | - | 0 W/m² | - |
| 1778026956 | 15° C | 99% | 1006.2 hPa | 0 mm | - | 0 W/m² | - |
| 1778025441 | 15° C | 99% | 1003.7 hPa | 21.08 mm | - | 0 W/m² | - |
| 1778023927 | 15° C | 99% | 1003.9 hPa | 85.85 mm | - | 0 W/m² | - |
| 1778023018 | 15.56° C | 99% | 1008.9 hPa | 25.15 mm | - | 0 W/m² | - |
| 1778022415 | 15.56° C | 99% | 1009.9 hPa | 7.87 mm | - | 0 W/m² | - |
| 1778022111 | 15.56° C | 99% | 1010.1 hPa | 4.32 mm | - | 0 W/m² | - |
| 1778021807 | 15.56° C | 99% | 1010.2 hPa | 4.83 mm | - | 0 W/m² | - |
| 1778021200 | 16.11° C | 99% | 1011.2 hPa | 5.33 mm | - | 0 W/m² | - |
| 1778020898 | 16.11° C | 99% | 1011.2 hPa | 3.56 mm | - | 0 W/m² | - |
| 1778020291 | 15.56° C | 99% | 1011.8 hPa | 8.89 mm | - | 0 W/m² | - |
| 1778019077 | 16.11° C | 99% | 1012 hPa | 10.67 mm | - | 0 W/m² | - |
| 1778018170 | 15.56° C | 99% | 1012.6 hPa | 6.6 mm | - | 0 W/m² | - |
| 1778016960 | 16.11° C | 99% | 1012.9 hPa | 4.83 mm | - | 0 W/m² | - |
| 1778015140 | 16.11° C | 99% | 1013.2 hPa | 6.6 mm | - | 0 W/m² | - |
| 1778013930 | 16.11° C | 99% | 1013.9 hPa | 8.38 mm | - | 0 W/m² | - |
* Rain latest hour (hover to see other rain measurements)
** Current wind speed in m/s (hover to see current wind gust speed)